This is the latest recevied weather packets stored in our database for station/object KD7AWQ. If no packets are shown the sender has not sent any weather packets the latest 10 day(s).
| Time | Temp. | Humidity | Pressure | Rain* | Wind** | Luminosity | Snow |
|---|---|---|---|---|---|---|---|
| 1778025361 | 18.89° C | 35% | 1179.3 hPa | 0 mm | - | 445 W/m² | - |
| 1778025058 | 18.89° C | 36% | 1179.3 hPa | 0 mm | - | 497 W/m² | - |
| 1778024755 | 18.33° C | 37% | 1179.3 hPa | 0 mm | - | 491 W/m² | - |
| 1778024451 | 18.33° C | 38% | 1179.2 hPa | 0 mm | - | 181 W/m² | - |
| 1778024149 | 18.89° C | 38% | 1179 hPa | 0 mm | - | 510 W/m² | - |
| 1778023846 | 18.89° C | 40% | 1178.8 hPa | 0 mm | - | 419 W/m² | - |
| 1778023544 | 18.89° C | 41% | 1179.2 hPa | 0 mm | - | 568 W/m² | - |
| 1778023241 | 19.44° C | 38% | 1179 hPa | 0 mm | - | 150 W/m² | - |
| 1778022938 | 19.44° C | 38% | 1178.8 hPa | 0 mm | - | 676 W/m² | - |
| 1778022637 | 20° C | 34% | 1178.7 hPa | 0 mm | - | 720 W/m² | - |
| 1778022334 | 18.89° C | 39% | 1178.9 hPa | 0 mm | - | 744 W/m² | - |
| 1778022030 | 18.33° C | 39% | 1178.6 hPa | 0 mm | - | 762 W/m² | - |
| 1778021727 | 18.33° C | 38% | 1179 hPa | 0 mm | - | 113 W/m² | - |
| 1778021423 | 18.89° C | 39% | 1178.8 hPa | 0 mm | - | 163 W/m² | - |
| 1778021120 | 18.89° C | 37% | 1178.8 hPa | 0 mm | - | 789 W/m² | - |
| 1778020817 | 18.89° C | 37% | 1179 hPa | 0 mm | - | 811 W/m² | - |
| 1778020514 | 18.33° C | 40% | 1179.3 hPa | 0 mm | - | 263 W/m² | - |
| 1778020210 | 18.33° C | 39% | 1179.3 hPa | 0 mm | - | 170 W/m² | - |
| 1778019907 | 18.33° C | 40% | 1179 hPa | 0 mm | - | 171 W/m² | - |
| 1778019602 | 17.78° C | 42% | 1179.3 hPa | 0 mm | - | 197 W/m² | - |
| 1778019300 | 18.33° C | 43% | 1179.4 hPa | 0 mm | - | 247 W/m² | - |
| 1778018997 | 19.44° C | 42% | 1179.7 hPa | 0 mm | - | 327 W/m² | - |
| 1778018694 | 19.44° C | 42% | 1179.2 hPa | 0 mm | - | 1007 W/m² | - |
| 1778018391 | 18.89° C | 44% | 1179.6 hPa | 0 mm | - | 835 W/m² | - |
| 1778018090 | 18.89° C | 42% | 1179.3 hPa | 0 mm | - | 959 W/m² | - |
* Rain latest hour (hover to see other rain measurements)
** Current wind speed in m/s (hover to see current wind gust speed)